Wetterstation Vordersexau
Wetterdaten: September 2013
Datum Temp. A. Feuchte A. Luftdruck Regen Wind Richtung Taupunkt Windchill Windben
01.09.2013 18,2 C 65 % 1023,1 hPa 0,0 l/m 2,2 km/h O-NO 11,0 C 18,0 C 1,2 km/h
02.09.2013 18,1 C 60 % 1024,7 hPa 0,0 l/m 1,9 km/h SO 8,7 C 17,8 C 1,1 km/h
03.09.2013 19,6 C 64 % 1024,0 hPa 0,0 l/m 2,5 km/h W-NW 11,8 C 19,4 C 1,4 km/h
04.09.2013 21,8 C 64 % 1019,7 hPa 0,0 l/m 0,3 km/h O-SO 13,9 C 21,8 C 0,2 km/h
05.09.2013 24,2 C 59 % 1013,4 hPa 0,0 l/m 0,7 km/h O-NO 14,4 C 24,2 C 0,4 km/h
06.09.2013 23,6 C 60 % 1009,6 hPa 0,0 l/m 3,4 km/h SO 14,1 C 23,5 C 1,9 km/h
07.09.2013 21,6 C 70 % 1014,0 hPa 3,1 l/m 1,0 km/h O-SO 15,7 C 21,5 C 0,5 km/h
08.09.2013 18,0 C 70 % 1016,2 hPa 16,6 l/m 3,5 km/h N-NO 12,2 C 17,7 C 1,9 km/h
09.09.2013 17,4 C 60 % 1017,9 hPa 2,1 l/m 6,8 km/h W 9,1 C 16,4 C 3,8 km/h
10.09.2013 14,7 C 72 % 1014,7 hPa 19,2 l/m 4,4 km/h SO 9,6 C 13,7 C 2,4 km/h
11.09.2013 10,6 C 79 % 1015,2 hPa 3,1 l/m 9,0 km/h W 7,2 C 8,2 C 5,0 km/h
12.09.2013 12,2 C 71 % 1016,0 hPa 8,8 l/m 4,1 km/h W 7,0 C 11,3 C 2,3 km/h
13.09.2013 15,4 C 65 % 1019,6 hPa 0,5 l/m 0,8 km/h SO 8,7 C 15,4 C 0,4 km/h
14.09.2013 16,5 C 78 % 1014,8 hPa 1,6 l/m 5,5 km/h W-SW 12,6 C 15,5 C 3,1 km/h
15.09.2013 15,7 C 68 % 1009,4 hPa 33,7 l/m 1,5 km/h SO 9,7 C 15,4 C 0,8 km/h
16.09.2013 13,0 C 78 % 1005,5 hPa 6,2 l/m 13,3 km/h S-SW 9,2 C 9,7 C 7,4 km/h
17.09.2013 11,0 C 74 % 1006,4 hPa 4,7 l/m 7,1 km/h W 6,4 C 9,3 C 4,0 km/h
18.09.2013 15,0 C 77 % 1001,3 hPa 14,0 l/m 12,5 km/h W-NW 11,0 C 11,9 C 7,0 km/h
19.09.2013 13,3 C 70 % 1012,1 hPa 0,5 l/m 1,8 km/h W-NW 7,7 C 13,1 C 1,0 km/h
20.09.2013 13,8 C 76 % 1016,4 hPa 0,0 l/m 6,4 km/h SO 9,5 C 12,3 C 3,5 km/h
21.09.2013 14,8 C 68 % 1023,3 hPa 0,0 l/m 1,9 km/h SO 8,6 C 14,6 C 1,1 km/h
22.09.2013 15,4 C 67 % 1025,3 hPa 0,0 l/m 0,8 km/h NO 8,8 C 15,4 C 0,4 km/h
23.09.2013 15,8 C 69 % 1021,8 hPa 0,0 l/m 0,4 km/h NO 9,6 C 15,8 C 0,2 km/h
24.09.2013 15,6 C 69 % 1014,7 hPa 0,0 l/m 0,9 km/h W 9,5 C 15,6 C 0,5 km/h
25.09.2013 16,4 C 71 % 1010,5 hPa 0,0 l/m 2,7 km/h SO 10,8 C 16,2 C 1,5 km/h
26.09.2013 18,9 C 71 % 1011,8 hPa 1,0 l/m 1,3 km/h SO 13,4 C 18,9 C 0,7 km/h
27.09.2013 16,7 C 74 % 1012,5 hPa 0,0 l/m 1,1 km/h W-NW 12,0 C 16,6 C 0,6 km/h
28.09.2013 15,5 C 74 % 1008,3 hPa 0,0 l/m 0,7 km/h W-NW 10,9 C 15,5 C 0,4 km/h
29.09.2013 15,5 C 72 % 1003,8 hPa 0,0 l/m 1,7 km/h W 10,5 C 15,4 C 0,9 km/h
30.09.2013 14,1 C 78 % 1004,5 hPa 0,0 l/m 0,3 km/h NW 10,2 C 14,1 C 0,2 km/h
Min-Datum 21.09.13 02.09.13 18.09.13 14 Tage 01.09.13 - 21.09.13 17.09.13 01.09.13
Min-Zeit 06:19 18:19 05:19 - 00:19 - 07:19 08:19 00:19
Minimum 6,2 C 24 % 999,3 hPa - 0,0 km/h - 2,2 C 1,6 C 0,0 km/h
Max-Datum 05.09.13 17.09.13 22.09.13 15.09.13 18.09.13 - 07.09.13 05.09.13 18.09.13
Max-Zeit 18:19 09:19 10:19 17:19 05:19 - 11:19 18:19 05:19
Maximum 39,6 C 84 % 1026,3 hPa 33,7 l/m 34,3 km/h
W-NW
- 20,4 C 39,6 C 19,1 km/h
W-NW
Durchschnitt 16,4 C 70 % 1014,3 hPa #115,0 l/m 3,3 km/h SO 10,5 C 15,8 C 1,9 km/h

Durchschnitt Minimum Temp.10,4 C
Durchschnitt Maximum Temp.25,6 C
www.sexauwetter.de